Time;durP1;ratioP1;P1;durP2;ratioP2;P2;SDS_P1;SDS_P2;PMS_P1;PMS_P2;Temp;Humidity;BMP_temperature;BMP_pressure;BME280_temperature;BME280_humidity;BME280_pressure;Samples;Min_cycle;Max_cycle;Signal;HPM_P1;HPM_P2
2023/05/22 00:00:51;;;;;;;32.13;26.70;;;15.90;99.90;;;;;;5115299;28;20035;-59
2023/05/22 00:03:17;;;;;;;34.78;26.55;;;16.00;99.90;;;;;;5113696;28;20069;-59
2023/05/22 00:05:42;;;;;;;31.02;25.25;;;16.00;99.90;;;;;;5113278;28;20480;-59
2023/05/22 00:08:11;;;;;;;32.65;27.48;;;16.00;99.90;;;;;;5113951;28;20048;-59
2023/05/22 00:10:38;;;;;;;34.10;26.35;;;16.00;99.90;;;;;;5113887;28;20032;-59
2023/05/22 00:13:03;;;;;;;29.98;25.10;;;16.00;99.90;;;;;;5114791;28;20045;-59
2023/05/22 00:15:30;;;;;;;31.88;24.95;;;16.00;99.90;;;;;;5114421;28;20027;-59
2023/05/22 00:17:55;;;;;;;31.60;26.10;;;16.00;99.90;;;;;;5114513;28;20461;-59
2023/05/22 00:20:22;;;;;;;30.23;24.90;;;16.10;99.90;;;;;;5114263;28;20071;-59
2023/05/22 00:22:48;;;;;;;30.85;26.08;;;16.00;99.90;;;;;;5114023;28;20180;-59
2023/05/22 00:25:18;;;;;;;32.03;25.30;;;16.10;99.90;;;;;;5113521;28;20046;-59
2023/05/22 00:27:43;;;;;;;33.22;25.08;;;16.10;99.90;;;;;;5114270;28;20472;-59
2023/05/22 00:30:10;;;;;;;26.73;22.73;;;16.20;99.90;;;;;;5112760;28;20032;-59
2023/05/22 00:32:35;;;;;;;31.58;24.08;;;16.20;99.90;;;;;;5113682;28;20043;-59
2023/05/22 00:35:02;;;;;;;30.90;24.17;;;16.20;99.90;;;;;;5114867;28;20043;-59
2023/05/22 00:37:28;;;;;;;26.30;22.63;;;16.30;99.90;;;;;;5114178;28;20043;-60
2023/05/22 00:39:53;;;;;;;28.40;23.10;;;16.30;99.90;;;;;;5113570;28;20031;-59
2023/05/22 00:42:19;;;;;;;28.45;23.65;;;16.30;99.90;;;;;;5093703;28;20039;-60
2023/05/22 00:44:45;;;;;;;24.52;21.88;;;16.30;99.90;;;;;;5093597;28;21381;-59
2023/05/22 00:47:11;;;;;;;28.50;23.38;;;16.30;99.90;;;;;;5093260;28;20048;-60
2023/05/22 00:49:36;;;;;;;30.88;25.50;;;16.30;99.90;;;;;;5092179;28;20058;-59
2023/05/22 00:52:02;;;;;;;29.42;25.00;;;16.30;99.90;;;;;;5092720;28;20428;-59
2023/05/22 00:54:30;;;;;;;23.25;20.00;;;16.30;99.90;;;;;;5093134;28;20090;-59
2023/05/22 00:56:56;;;;;;;28.65;22.85;;;16.30;99.90;;;;;;5075762;28;20044;-59
2023/05/22 00:59:22;;;;;;;24.63;21.40;;;16.30;99.90;;;;;;5091196;28;20066;-59
2023/05/22 01:01:48;;;;;;;25.75;22.90;;;16.30;99.90;;;;;;5093760;28;20035;-59
2023/05/22 01:04:14;;;;;;;30.65;27.33;;;16.30;99.90;;;;;;5093430;28;20135;-60
2023/05/22 01:06:40;;;;;;;28.88;24.38;;;16.30;99.90;;;;;;5091616;28;20048;-60
2023/05/22 01:09:07;;;;;;;33.10;27.70;;;16.30;99.90;;;;;;5093478;28;20097;-59
2023/05/22 01:11:51;;;;;;;38.10;28.25;;;16.30;99.90;;;;;;5092808;28;20036;-59
2023/05/22 01:14:23;;;;;;;28.63;25.55;;;16.30;99.90;;;;;;5093781;28;20027;-59
2023/05/22 01:17:07;;;;;;;32.35;28.02;;;16.30;99.90;;;;;;5092377;28;20040;-60
2023/05/22 01:20:13;;;;;;;32.65;27.52;;;16.30;99.90;;;;;;5091908;28;20048;-60
2023/05/22 01:22:46;;;;;;;32.83;26.17;;;16.30;99.90;;;;;;5030634;28;20124;-60
2023/05/22 01:25:30;;;;;;;30.80;26.55;;;16.20;99.90;;;;;;4997820;28;20059;-59
2023/05/22 01:28:49;;;;;;;39.83;30.40;;;16.20;99.90;;;;;;5071152;28;20055;-60
2023/05/22 01:31:20;;;;;;;29.50;25.52;;;16.20;99.90;;;;;;4997632;28;20045;-60
2023/05/22 01:33:49;;;;;;;38.90;30.05;;;16.20;99.90;;;;;;5082426;28;20127;-60
2023/05/22 01:36:19;;;;;;;38.85;29.83;;;16.20;99.90;;;;;;5074003;28;20040;-60
2023/05/22 01:38:45;;;;;;;41.92;30.15;;;16.20;99.90;;;;;;5092796;28;20066;-60
2023/05/22 01:41:12;;;;;;;41.20;30.35;;;16.20;99.90;;;;;;5091121;28;20050;-60
2023/05/22 01:43:38;;;;;;;44.00;35.92;;;16.10;99.90;;;;;;5083996;28;20104;-60
2023/05/22 01:46:05;;;;;;;33.63;29.50;;;16.10;99.90;;;;;;5113358;28;20538;-60
2023/05/22 01:48:31;;;;;;;37.88;30.08;;;16.10;99.90;;;;;;5112227;28;20051;-60
2023/05/22 01:51:02;;;;;;;33.10;28.60;;;16.10;99.90;;;;;;5112844;28;20035;-60
2023/05/22 01:53:43;;;;;;;41.47;33.83;;;16.10;99.90;;;;;;5092120;28;20078;-60
2023/05/22 01:56:13;;;;;;;39.17;31.67;;;16.10;99.90;;;;;;5092078;28;20036;-60
2023/05/22 01:58:55;;;;;;;43.90;33.92;;;16.10;99.90;;;;;;5092602;28;20039;-60
2023/05/22 02:01:26;;;;;;;33.17;29.25;;;16.00;99.90;;;;;;5092050;28;20042;-60
2023/05/22 02:03:55;;;;;;;39.35;29.88;;;16.00;99.90;;;;;;5090667;28;20048;-60
2023/05/22 02:06:22;;;;;;;37.65;31.40;;;16.00;99.90;;;;;;5092131;28;20063;-60
2023/05/22 02:08:49;;;;;;;40.63;34.63;;;16.00;99.90;;;;;;5091543;28;20071;-60
2023/05/22 02:11:16;;;;;;;34.17;29.33;;;16.00;99.90;;;;;;5091506;28;20047;-60
2023/05/22 02:13:42;;;;;;;43.85;34.67;;;16.00;99.90;;;;;;5092329;28;20055;-60
2023/05/22 02:16:08;;;;;;;42.78;32.78;;;16.00;99.90;;;;;;5109619;28;20040;-60
2023/05/22 02:18:34;;;;;;;44.95;35.25;;;16.00;99.90;;;;;;5111615;28;20365;-60
2023/05/22 02:21:01;;;;;;;41.35;33.63;;;16.00;99.90;;;;;;5111486;28;20107;-60
2023/05/22 02:23:28;;;;;;;40.95;34.80;;;16.00;99.90;;;;;;5110025;28;20510;-60
2023/05/22 02:25:54;;;;;;;41.08;33.95;;;16.00;99.90;;;;;;5111323;28;20051;-60
2023/05/22 02:28:20;;;;;;;40.22;32.42;;;16.00;99.90;;;;;;5111060;28;20047;-60
2023/05/22 02:30:46;;;;;;;39.67;32.22;;;16.00;99.90;;;;;;5111712;28;20044;-60
2023/05/22 02:33:12;;;;;;;41.65;33.47;;;16.00;99.90;;;;;;5111136;28;20494;-61
2023/05/22 02:35:37;;;;;;;39.63;32.92;;;16.00;99.90;;;;;;5112536;28;20516;-60
2023/05/22 02:38:03;;;;;;;44.97;35.15;;;15.90;99.90;;;;;;5093595;28;20472;-60
2023/05/22 02:40:29;;;;;;;37.97;32.47;;;16.00;99.90;;;;;;5111650;28;20043;-60
2023/05/22 02:42:55;;;;;;;38.45;32.70;;;15.90;99.90;;;;;;5112320;28;20510;-60
2023/05/22 02:45:21;;;;;;;34.17;30.17;;;15.90;99.90;;;;;;5110273;28;20054;-60
2023/05/22 02:47:46;;;;;;;40.40;31.67;;;15.80;99.90;;;;;;5097322;28;20040;-60
2023/05/22 02:50:13;;;;;;;44.58;34.08;;;15.80;99.90;;;;;;5091925;28;20086;-60
2023/05/22 02:52:39;;;;;;;39.53;31.10;;;15.80;99.90;;;;;;5091071;28;20036;-60
2023/05/22 02:55:07;;;;;;;42.03;33.20;;;15.70;99.90;;;;;;5092219;28;20032;-60
2023/05/22 02:57:32;;;;;;;43.03;32.15;;;15.70;99.90;;;;;;5090284;28;20048;-60
2023/05/22 02:59:58;;;;;;;42.30;31.73;;;15.70;99.90;;;;;;5091136;28;20062;-60
2023/05/22 03:02:28;;;;;;;44.90;34.85;;;15.70;99.90;;;;;;5090395;28;20036;-60
2023/05/22 03:04:57;;;;;;;44.15;31.70;;;15.60;99.90;;;;;;5092135;28;20048;-60
2023/05/22 03:07:25;;;;;;;41.70;33.50;;;15.60;99.90;;;;;;5072686;28;20108;-60
2023/05/22 03:09:51;;;;;;;39.05;33.10;;;15.60;99.90;;;;;;5092038;28;20032;-60
2023/05/22 03:12:16;;;;;;;38.53;29.52;;;15.60;99.90;;;;;;5090300;28;20044;-60
2023/05/22 03:14:43;;;;;;;43.25;30.80;;;15.60;99.90;;;;;;5093395;28;20040;-60
2023/05/22 03:17:09;;;;;;;42.38;30.23;;;15.60;99.90;;;;;;5094245;28;20119;-60
2023/05/22 03:19:35;;;;;;;40.05;31.08;;;15.50;99.90;;;;;;5094057;28;20166;-60
2023/05/22 03:22:00;;;;;;;42.65;32.00;;;15.40;99.90;;;;;;5093976;28;20067;-60
2023/05/22 03:24:26;;;;;;;39.65;30.55;;;15.40;99.90;;;;;;5093899;28;20039;-60
2023/05/22 03:26:52;;;;;;;45.33;30.73;;;15.30;99.90;;;;;;5093725;28;20119;-60
2023/05/22 03:29:17;;;;;;;46.42;32.55;;;15.30;99.90;;;;;;5095020;28;20396;-60
2023/05/22 03:31:43;;;;;;;43.90;32.20;;;15.20;99.90;;;;;;5093874;28;20048;-60
2023/05/22 03:34:09;;;;;;;43.65;31.20;;;15.20;99.90;;;;;;5094396;28;20055;-60
2023/05/22 03:36:35;;;;;;;40.67;30.52;;;15.20;99.90;;;;;;5094976;28;20039;-60
2023/05/22 03:39:04;;;;;;;46.67;33.80;;;15.20;99.90;;;;;;5094318;28;20032;-60
2023/05/22 03:41:29;;;;;;;43.20;30.17;;;15.10;99.90;;;;;;5094030;28;20032;-60
2023/05/22 03:43:56;;;;;;;42.78;31.08;;;15.10;99.90;;;;;;5077020;28;20446;-60
2023/05/22 03:46:21;;;;;;;46.15;32.15;;;15.10;99.90;;;;;;5094792;28;20408;-61
2023/05/22 03:48:47;;;;;;;47.10;33.53;;;15.10;99.90;;;;;;5094475;28;20046;-60
2023/05/22 03:51:13;;;;;;;49.63;33.22;;;15.10;99.90;;;;;;5093439;28;20048;-60
2023/05/22 03:53:39;;;;;;;43.47;33.08;;;15.10;99.90;;;;;;5094859;28;20038;-60
2023/05/22 03:56:05;;;;;;;48.35;35.85;;;15.10;99.90;;;;;;5094287;28;20032;-60
2023/05/22 03:58:30;;;;;;;42.20;32.58;;;15.10;99.90;;;;;;5102360;28;20520;-60
2023/05/22 04:01:00;;;;;;;51.50;35.60;;;15.10;99.90;;;;;;5095170;28;20036;-60
2023/05/22 04:03:29;;;;;;;50.30;38.85;;;15.10;99.90;;;;;;5075403;28;20055;-60
2023/05/22 04:05:55;;;;;;;50.97;38.33;;;15.20;99.90;;;;;;5094554;28;20044;-60
2023/05/22 04:08:21;;;;;;;54.13;37.35;;;15.20;99.90;;;;;;5094258;28;20044;-60
2023/05/22 04:10:47;;;;;;;49.03;36.88;;;15.20;99.90;;;;;;5092818;28;20491;-60
2023/05/22 04:13:14;;;;;;;48.65;34.45;;;15.20;99.90;;;;;;5093025;28;20503;-60
2023/05/22 04:15:42;;;;;;;44.60;31.83;;;15.20;99.90;;;;;;5094419;28;20814;-60
2023/05/22 04:18:08;;;;;;;45.85;36.00;;;15.20;99.90;;;;;;5092673;28;20070;-60
2023/05/22 04:20:34;;;;;;;35.70;29.83;;;15.30;99.90;;;;;;5094212;28;20473;-60
2023/05/22 04:23:00;;;;;;;40.85;30.48;;;15.30;99.90;;;;;;5093954;28;20488;-60
2023/05/22 04:25:26;;;;;;;40.40;31.08;;;15.40;99.90;;;;;;5093570;28;20496;-60
2023/05/22 04:27:51;;;;;;;48.75;37.95;;;15.40;99.90;;;;;;5093292;28;20051;-60
2023/05/22 04:30:17;;;;;;;42.42;34.17;;;15.40;99.90;;;;;;5109619;28;20043;-60
2023/05/22 04:32:43;;;;;;;48.28;37.40;;;15.40;99.90;;;;;;5113046;28;20067;-60
2023/05/22 04:35:11;;;;;;;43.88;35.33;;;15.50;99.90;;;;;;5114523;28;20085;-60
2023/05/22 04:37:39;;;;;;;44.83;36.85;;;15.50;99.90;;;;;;5112588;28;20062;-60
2023/05/22 04:40:07;;;;;;;41.30;34.20;;;15.50;99.90;;;;;;5113606;28;20088;-60
2023/05/22 04:42:36;;;;;;;39.33;31.20;;;15.60;99.90;;;;;;5109131;28;20561;-60
2023/05/22 04:45:02;;;;;;;38.65;28.08;;;15.60;99.90;;;;;;5052173;28;20131;-60
2023/05/22 04:47:30;;;;;;;36.05;28.10;;;15.70;99.90;;;;;;5053418;28;20037;-60
2023/05/22 04:49:57;;;;;;;34.10;25.67;;;15.70;99.90;;;;;;5052420;28;20094;-60
2023/05/22 04:52:23;;;;;;;32.78;24.63;;;15.70;99.90;;;;;;5051007;28;20515;-60
2023/05/22 04:54:51;;;;;;;36.10;21.63;;;15.60;99.90;;;;;;5053773;28;20041;-60
2023/05/22 04:57:17;;;;;;;29.23;20.17;;;15.60;99.90;;;;;;5052212;28;20067;-60
2023/05/22 04:59:44;;;;;;;25.90;16.42;;;15.60;99.90;;;;;;5052410;28;20076;-60
2023/05/22 05:02:10;;;;;;;25.63;16.83;;;15.60;99.90;;;;;;5052121;28;20044;-60
2023/05/22 05:04:36;;;;;;;22.52;15.60;;;15.50;99.90;;;;;;5056547;28;20455;-60
2023/05/22 05:07:02;;;;;;;22.85;17.23;;;15.50;99.90;;;;;;5059068;28;20084;-60
2023/05/22 05:09:28;;;;;;;23.27;14.73;;;15.40;99.90;;;;;;5060381;28;20041;-60
2023/05/22 05:11:54;;;;;;;22.52;13.80;;;15.40;99.90;;;;;;5060134;28;20033;-60
2023/05/22 05:14:20;;;;;;;20.42;12.63;;;15.30;99.90;;;;;;5055966;28;20040;-61
2023/05/22 05:16:45;;;;;;;20.35;10.77;;;15.30;99.90;;;;;;5060475;28;20041;-60
2023/05/22 05:19:11;;;;;;;23.50;12.85;;;15.30;99.90;;;;;;5062338;28;20068;-60
2023/05/22 05:21:38;;;;;;;21.45;11.60;;;15.30;99.90;;;;;;5052079;28;20112;-60
2023/05/22 05:24:04;;;;;;;18.85;10.88;;;15.30;99.90;;;;;;5035267;28;20543;-60
2023/05/22 05:26:30;;;;;;;18.73;11.50;;;15.40;99.90;;;;;;5050780;28;20084;-60
2023/05/22 05:28:55;;;;;;;21.45;11.05;;;15.50;99.90;;;;;;5052938;28;20080;-60
2023/05/22 05:31:21;;;;;;;20.70;11.63;;;15.50;99.90;;;;;;5051291;28;20151;-60
2023/05/22 05:33:47;;;;;;;20.55;10.88;;;15.60;99.90;;;;;;5050386;28;20043;-60
2023/05/22 05:36:13;;;;;;;21.10;11.13;;;15.60;99.90;;;;;;5064992;28;20037;-60
2023/05/22 05:38:39;;;;;;;21.58;11.73;;;15.70;99.90;;;;;;5060257;28;20067;-60
2023/05/22 05:41:05;;;;;;;17.35;11.90;;;15.70;99.90;;;;;;5053858;28;20720;-60
2023/05/22 05:43:31;;;;;;;21.75;11.77;;;15.80;99.90;;;;;;5063861;28;20067;-60
2023/05/22 05:45:56;;;;;;;22.15;10.60;;;15.80;99.90;;;;;;5090558;28;20048;-60
2023/05/22 05:48:22;;;;;;;20.98;11.73;;;15.80;99.90;;;;;;5088278;28;20058;-60
2023/05/22 05:50:48;;;;;;;20.58;11.13;;;15.80;99.90;;;;;;5090384;28;20430;-60
2023/05/22 05:53:14;;;;;;;19.67;10.32;;;15.80;99.90;;;;;;5089443;28;20085;-60
2023/05/22 05:55:40;;;;;;;15.85;9.20;;;15.80;99.90;;;;;;5087084;28;20054;-60
2023/05/22 05:58:06;;;;;;;20.25;10.15;;;15.70;99.90;;;;;;5093544;28;20035;-60
2023/05/22 06:00:31;;;;;;;18.92;10.25;;;15.70;99.90;;;;;;5108836;28;20399;-60
2023/05/22 06:02:58;;;;;;;21.83;10.75;;;15.70;99.90;;;;;;5116857;27;20047;-60
2023/05/22 06:05:23;;;;;;;15.90;10.50;;;15.70;99.90;;;;;;5130572;27;20439;-60
2023/05/22 06:07:49;;;;;;;24.65;11.10;;;15.60;99.90;;;;;;5114981;27;20122;-60
2023/05/22 06:10:15;;;;;;;20.83;10.52;;;15.60;99.90;;;;;;5109523;28;20078;-60
2023/05/22 06:12:41;;;;;;;22.23;11.07;;;15.60;99.90;;;;;;5109992;28;20087;-60
2023/05/22 06:15:07;;;;;;;21.42;10.70;;;15.60;99.90;;;;;;5110028;28;20063;-59
2023/05/22 06:17:33;;;;;;;19.20;11.25;;;15.50;99.90;;;;;;5108951;28;20047;-60
2023/05/22 06:20:00;;;;;;;22.20;12.10;;;15.50;99.90;;;;;;5095478;28;20076;-60
2023/05/22 06:22:25;;;;;;;23.33;12.00;;;15.50;99.90;;;;;;5101191;28;20674;-60
2023/05/22 06:24:53;;;;;;;26.75;13.52;;;15.40;99.90;;;;;;5109731;28;20054;-60
2023/05/22 06:27:22;;;;;;;22.63;11.48;;;15.50;99.90;;;;;;5109323;28;20105;-60
2023/05/22 06:29:49;;;;;;;22.05;10.52;;;15.40;99.90;;;;;;5109691;28;20736;-60
2023/05/22 06:32:15;;;;;;;19.90;12.25;;;15.40;99.90;;;;;;5109464;28;20126;-60
2023/05/22 06:34:41;;;;;;;23.65;12.40;;;15.40;99.90;;;;;;5109659;28;20044;-61
2023/05/22 06:37:06;;;;;;;25.17;12.65;;;15.40;99.90;;;;;;5109117;28;20031;-60
2023/05/22 06:39:32;;;;;;;24.73;12.63;;;15.40;99.90;;;;;;5108049;28;20396;-60
2023/05/22 06:41:58;;;;;;;24.92;13.50;;;15.40;99.90;;;;;;5110096;28;20043;-60
2023/05/22 06:44:24;;;;;;;23.48;11.88;;;15.40;99.90;;;;;;5107532;28;20055;-60
2023/05/22 06:46:51;;;;;;;21.10;10.98;;;15.50;99.90;;;;;;5110112;28;20047;-60
2023/05/22 06:49:17;;;;;;;20.85;10.95;;;15.50;99.90;;;;;;5110417;28;20085;-60
2023/05/22 06:51:44;;;;;;;22.42;10.20;;;15.50;99.90;;;;;;5089496;28;20039;-60
2023/05/22 06:54:11;;;;;;;21.58;11.40;;;15.60;99.90;;;;;;5098118;28;20452;-60
2023/05/22 06:56:37;;;;;;;19.60;11.00;;;15.60;99.90;;;;;;5093300;28;20075;-61
2023/05/22 06:59:03;;;;;;;18.25;10.20;;;15.70;99.90;;;;;;5113120;27;20086;-60
2023/05/22 07:01:28;;;;;;;18.92;9.30;;;15.70;99.90;;;;;;5112016;28;20043;-61
2023/05/22 07:03:56;;;;;;;15.07;8.82;;;15.70;99.90;;;;;;5095108;28;20046;-61
2023/05/22 07:06:23;;;;;;;16.45;8.95;;;15.90;99.90;;;;;;5092423;28;20559;-61
2023/05/22 07:08:50;;;;;;;18.90;9.52;;;15.90;99.90;;;;;;5092263;28;20075;-61
2023/05/22 07:11:15;;;;;;;23.95;11.68;;;16.00;99.90;;;;;;5112175;28;20077;-61
2023/05/22 07:13:41;;;;;;;19.05;10.52;;;16.10;99.90;;;;;;5112418;28;20079;-61
2023/05/22 07:16:07;;;;;;;20.83;10.35;;;16.20;99.90;;;;;;5090207;28;20035;-60
2023/05/22 07:18:33;;;;;;;22.77;11.02;;;16.20;99.90;;;;;;5107446;28;20036;-61
2023/05/22 07:21:00;;;;;;;25.50;11.88;;;16.30;99.90;;;;;;5101593;28;20078;-60
2023/05/22 07:23:26;;;;;;;22.10;11.18;;;16.30;99.90;;;;;;5109073;28;20048;-61
2023/05/22 07:25:51;;;;;;;20.27;9.98;;;16.30;99.90;;;;;;5111348;28;20066;-60
2023/05/22 07:28:17;;;;;;;17.88;10.43;;;16.30;99.90;;;;;;5086701;28;20058;-61
2023/05/22 07:30:43;;;;;;;19.40;9.35;;;16.30;99.90;;;;;;5110170;28;20127;-60
2023/05/22 07:33:09;;;;;;;17.88;10.40;;;16.20;99.90;;;;;;5110670;28;20380;-60
2023/05/22 07:35:34;;;;;;;17.27;9.52;;;16.20;99.90;;;;;;5112173;28;20097;-60
2023/05/22 07:38:00;;;;;;;18.17;9.60;;;16.30;99.90;;;;;;5112073;28;20106;-61
2023/05/22 07:40:26;;;;;;;17.40;9.60;;;16.20;99.90;;;;;;5111547;28;20545;-59
2023/05/22 07:42:51;;;;;;;21.77;9.13;;;16.30;99.90;;;;;;5112722;28;20040;-60
2023/05/22 07:45:17;;;;;;;17.30;8.45;;;16.30;99.90;;;;;;5110943;28;20499;-60
2023/05/22 07:47:43;;;;;;;15.35;8.82;;;16.30;99.90;;;;;;5108909;28;20047;-60
2023/05/22 07:50:09;;;;;;;20.13;8.95;;;16.30;99.90;;;;;;5092373;28;20049;-60
2023/05/22 07:52:34;;;;;;;16.27;8.65;;;16.30;99.90;;;;;;5110770;28;20048;-60
2023/05/22 07:55:00;;;;;;;11.27;6.32;;;16.40;99.90;;;;;;5105801;28;20040;-60
2023/05/22 07:57:26;;;;;;;13.00;7.07;;;16.40;99.90;;;;;;5089009;28;20048;-60
2023/05/22 07:59:52;;;;;;;18.17;9.05;;;16.40;99.90;;;;;;5103333;28;20043;-60
2023/05/22 08:02:18;;;;;;;11.32;6.40;;;16.60;99.90;;;;;;5108227;28;20059;-60
2023/05/22 08:04:44;;;;;;;12.23;6.25;;;16.60;99.90;;;;;;5109447;28;20059;-61
2023/05/22 08:07:11;;;;;;;14.88;6.65;;;16.60;99.90;;;;;;5092959;28;20043;-60
2023/05/22 08:09:37;;;;;;;11.15;6.80;;;16.70;99.90;;;;;;5109345;28;20055;-61
2023/05/22 08:12:03;;;;;;;12.77;6.80;;;16.70;99.90;;;;;;5111066;28;20039;-61
2023/05/22 08:14:29;;;;;;;10.00;5.57;;;16.80;99.90;;;;;;5108459;28;20051;-61
2023/05/22 08:16:57;;;;;;;11.13;6.00;;;16.80;99.90;;;;;;5108708;28;20027;-60
2023/05/22 08:19:24;;;;;;;12.65;5.40;;;16.90;99.90;;;;;;5109462;28;20044;-61
2023/05/22 08:21:56;;;;;;;11.18;5.47;;;16.90;99.90;;;;;;5111550;28;20053;-61
2023/05/22 08:24:27;;;;;;;10.70;5.13;;;16.90;99.90;;;;;;5109762;28;20043;-61
2023/05/22 08:26:54;;;;;;;12.38;5.20;;;16.90;99.90;;;;;;5111029;28;20061;-62
2023/05/22 08:29:20;;;;;;;11.45;6.03;;;16.90;99.90;;;;;;5109905;28;20043;-61
2023/05/22 08:31:46;;;;;;;14.50;7.88;;;16.90;99.90;;;;;;5110923;28;20042;-60
2023/05/22 08:34:12;;;;;;;9.88;5.63;;;16.90;99.90;;;;;;5109564;28;20043;-60
2023/05/22 08:36:38;;;;;;;12.10;5.45;;;16.90;99.90;;;;;;5088222;28;20051;-60
2023/05/22 08:39:06;;;;;;;10.27;4.63;;;16.80;99.90;;;;;;5090764;28;20047;-60
2023/05/22 08:41:31;;;;;;;10.65;4.55;;;16.80;99.90;;;;;;5089386;28;20090;-60
2023/05/22 08:43:57;;;;;;;9.20;5.45;;;16.80;99.90;;;;;;5051262;28;1090154;-60
2023/05/22 08:46:27;;;;;;;12.38;4.68;;;16.80;99.90;;;;;;5091275;28;20044;-59
2023/05/22 08:48:57;;;;;;;7.63;4.65;;;16.80;99.90;;;;;;5096601;28;20058;-60
2023/05/22 08:51:28;;;;;;;8.80;5.03;;;16.80;99.90;;;;;;5079072;28;20085;-60
2023/05/22 08:53:56;;;;;;;8.35;4.45;;;16.80;99.90;;;;;;5109560;28;20081;-59
2023/05/22 08:56:22;;;;;;;8.77;5.03;;;16.80;99.90;;;;;;5103837;28;20152;-59
2023/05/22 08:58:50;;;;;;;8.50;5.13;;;16.90;99.90;;;;;;5091569;28;20388;-60
2023/05/22 09:01:15;;;;;;;11.65;6.13;;;16.90;99.90;;;;;;5102756;28;20487;-60
2023/05/22 09:03:41;;;;;;;9.02;4.97;;;17.00;99.90;;;;;;5086198;28;20082;-59
2023/05/22 09:06:09;;;;;;;7.85;5.18;;;17.20;99.90;;;;;;5099831;28;20048;-60
2023/05/22 09:08:35;;;;;;;9.73;6.20;;;17.20;99.90;;;;;;5101056;28;20531;-59
2023/05/22 09:11:01;;;;;;;10.60;6.30;;;17.40;99.90;;;;;;5079960;28;20105;-59
2023/05/22 09:13:31;;;;;;;10.63;6.00;;;17.60;99.90;;;;;;5101756;28;20699;-60
2023/05/22 09:16:13;;;;;;;11.55;6.90;;;17.80;99.90;;;;;;5111444;28;20032;-60
2023/05/22 09:18:41;;;;;;;11.32;6.32;;;17.90;99.90;;;;;;5109354;28;20764;-60
2023/05/22 09:21:07;;;;;;;10.40;6.82;;;17.90;99.90;;;;;;5108888;28;20135;-59
2023/05/22 09:23:33;;;;;;;13.85;8.57;;;17.90;99.90;;;;;;5102380;28;20072;-60
2023/05/22 09:26:01;;;;;;;9.90;7.30;;;17.90;99.90;;;;;;5090619;28;20094;-60
2023/05/22 09:28:32;;;;;;;16.45;7.30;;;17.80;99.90;;;;;;5090741;28;20040;-60
2023/05/22 09:30:58;;;;;;;9.85;7.13;;;17.70;99.90;;;;;;5091217;28;20430;-59
2023/05/22 09:33:24;;;;;;;11.55;7.80;;;17.70;99.90;;;;;;5112517;27;20127;-60
2023/05/22 09:35:53;;;;;;;11.65;7.97;;;17.80;99.90;;;;;;5090947;28;20115;-59
2023/05/22 09:38:21;;;;;;;11.77;8.07;;;17.90;99.90;;;;;;5097989;28;20032;-60
2023/05/22 09:40:52;;;;;;;22.80;8.60;;;18.10;99.90;;;;;;5101021;28;20039;-60
2023/05/22 09:43:17;;;;;;;15.88;9.13;;;18.10;99.90;;;;;;5103449;28;20052;-60
2023/05/22 09:45:43;;;;;;;11.15;8.80;;;18.10;99.90;;;;;;5112967;28;20043;-60
2023/05/22 09:48:09;;;;;;;12.80;8.35;;;18.10;99.90;;;;;;5107163;28;20731;-60
2023/05/22 09:50:35;;;;;;;12.50;9.90;;;18.10;99.90;;;;;;5101421;28;20032;-60
2023/05/22 09:53:03;;;;;;;13.30;10.00;;;18.20;99.90;;;;;;5096412;28;20550;-60
2023/05/22 09:55:30;;;;;;;13.35;9.25;;;18.30;99.90;;;;;;5109684;28;20392;-60
2023/05/22 09:57:57;;;;;;;13.50;10.07;;;18.40;99.90;;;;;;5096870;28;20035;-61
2023/05/22 10:00:24;;;;;;;13.88;9.98;;;18.40;99.90;;;;;;5108239;28;20110;-61
2023/05/22 10:03:02;;;;;;;12.88;9.68;;;18.40;99.90;;;;;;5096477;28;20378;-61
2023/05/22 10:05:30;;;;;;;12.90;9.93;;;18.50;99.90;;;;;;5131698;27;20055;-61
2023/05/22 10:08:01;;;;;;;11.75;9.20;;;18.50;99.90;;;;;;5092579;28;20039;-61
2023/05/22 10:10:27;;;;;;;11.98;9.75;;;18.50;99.90;;;;;;5097864;28;20508;-61
2023/05/22 10:12:56;;;;;;;13.85;9.68;;;18.50;99.90;;;;;;5097823;28;20450;-61
2023/05/22 10:15:23;;;;;;;13.35;9.98;;;18.60;99.90;;;;;;5126987;27;20065;-61
2023/05/22 10:17:49;;;;;;;14.18;9.70;;;18.70;99.90;;;;;;5111752;28;20472;-61
2023/05/22 10:20:15;;;;;;;15.98;10.68;;;18.80;99.90;;;;;;5109200;28;20042;-61
2023/05/22 10:22:41;;;;;;;13.98;10.70;;;18.80;99.90;;;;;;5109183;28;20051;-61
2023/05/22 10:25:08;;;;;;;14.93;10.75;;;18.90;99.90;;;;;;5092551;28;20376;-61
2023/05/22 10:27:34;;;;;;;13.98;10.77;;;18.90;99.90;;;;;;5096024;28;20040;-61
2023/05/22 10:30:05;;;;;;;15.00;11.02;;;18.90;99.90;;;;;;5108999;28;21057;-61
2023/05/22 10:32:55;;;;;;;16.80;11.93;;;18.90;99.90;;;;;;5094315;28;20537;-61
2023/05/22 10:35:27;;;;;;;14.38;12.13;;;18.90;99.90;;;;;;5104550;28;20035;-61
2023/05/22 10:38:22;;;;;;;14.20;10.32;;;19.00;99.90;;;;;;5099151;28;20032;-61
2023/05/22 10:40:49;;;;;;;;;;;19.10;99.90;;;;;;5076790;28;20048;-61
2023/05/22 10:43:14;;;;;;;13.63;11.63;;;19.00;99.90;;;;;;5089227;28;19990;-61
2023/05/22 10:45:43;;;;;;;15.32;11.73;;;19.10;99.90;;;;;;5093592;28;20086;-63
2023/05/22 10:48:11;;;;;;;14.02;11.27;;;19.10;99.90;;;;;;5081475;28;20084;-63
2023/05/22 10:50:38;;;;;;;16.10;12.70;;;19.30;99.90;;;;;;5111573;28;20476;-62
2023/05/22 10:53:21;;;;;;;14.45;11.07;;;19.30;99.90;;;;;;5092165;28;20086;-62
2023/05/22 10:55:55;;;;;;;15.45;12.82;;;19.40;99.90;;;;;;5097407;28;20032;-62
2023/05/22 10:58:35;;;;;;;15.75;12.73;;;19.40;99.90;;;;;;5091293;28;20119;-62
2023/05/22 11:01:11;;;;;;;15.63;12.18;;;19.50;99.90;;;;;;5092045;28;20119;-62
2023/05/22 11:04:00;;;;;;;17.00;11.60;;;19.50;99.90;;;;;;5091963;28;20044;-62
2023/05/22 11:06:32;;;;;;;14.95;11.77;;;19.50;99.90;;;;;;5091523;28;20040;-62
2023/05/22 11:08:58;;;;;;;14.68;10.57;;;19.60;99.90;;;;;;5092133;28;20039;-62
2023/05/22 11:11:25;;;;;;;13.52;12.07;;;19.70;99.90;;;;;;5089319;28;20058;-63
2023/05/22 11:13:52;;;;;;;18.60;12.00;;;19.70;99.90;;;;;;5091838;28;20549;-62
2023/05/22 11:16:18;;;;;;;15.68;13.00;;;19.80;99.90;;;;;;5090287;28;20047;-62
2023/05/22 11:18:45;;;;;;;15.00;11.95;;;19.80;99.90;;;;;;5090750;28;20485;-62
2023/05/22 11:21:12;;;;;;;12.90;10.93;;;19.80;99.90;;;;;;5091685;28;20051;-62
2023/05/22 11:23:38;;;;;;;15.20;10.90;;;19.80;99.90;;;;;;5090391;28;20044;-62
2023/05/22 11:26:18;;;;;;;15.60;11.80;;;19.90;99.90;;;;;;5091162;28;20048;-62
2023/05/22 11:28:48;;;;;;;15.73;11.90;;;20.00;99.90;;;;;;5090510;28;20151;-62
2023/05/22 11:31:14;;;;;;;16.00;11.82;;;20.10;99.90;;;;;;5090541;28;20047;-62
2023/05/22 11:33:40;;;;;;;18.38;11.70;;;20.10;99.90;;;;;;5089818;28;20435;-62
2023/05/22 11:36:08;;;;;;;16.48;11.32;;;19.90;99.90;;;;;;5094973;28;20036;-62
2023/05/22 11:38:34;;;;;;;16.83;12.07;;;19.90;99.90;;;;;;5093965;28;20086;-62
2023/05/22 11:41:00;;;;;;;16.77;12.00;;;19.90;99.90;;;;;;5076608;28;20492;-62
2023/05/22 11:43:31;;;;;;;16.05;11.13;;;19.90;99.90;;;;;;5094535;28;20056;-62
2023/05/22 11:46:09;;;;;;;17.92;12.32;;;20.00;99.90;;;;;;5094427;28;20431;-62
2023/05/22 11:48:35;;;;;;;15.43;11.77;;;20.00;99.90;;;;;;5093824;28;20412;-62
2023/05/22 11:51:06;;;;;;;14.15;11.65;;;19.90;99.90;;;;;;5094173;28;20044;-62
2023/05/22 11:53:33;;;;;;;19.33;13.43;;;19.90;99.90;;;;;;5092428;28;20098;-62
2023/05/22 11:56:05;;;;;;;18.77;13.18;;;19.90;99.90;;;;;;5095294;28;20032;-62
2023/05/22 11:58:31;;;;;;;16.98;11.60;;;19.90;99.90;;;;;;5094534;28;20500;-62
2023/05/22 12:00:59;;;;;;;22.48;13.55;;;20.00;99.90;;;;;;5093009;28;20442;-63
2023/05/22 12:03:25;;;;;;;17.90;12.93;;;20.10;99.90;;;;;;5094453;28;20399;-62
2023/05/22 12:05:51;;;;;;;19.35;12.55;;;20.00;99.90;;;;;;5093558;28;20040;-62
2023/05/22 12:08:17;;;;;;;18.70;12.20;;;20.00;99.90;;;;;;5092670;28;20505;-62
2023/05/22 12:10:49;;;;;;;17.67;13.05;;;20.00;99.90;;;;;;5094669;28;20050;-63
2023/05/22 12:13:22;;;;;;;16.17;12.02;;;20.20;99.90;;;;;;5094675;28;20043;-62
2023/05/22 12:15:48;;;;;;;15.95;12.63;;;20.20;99.90;;;;;;5093109;28;20048;-62
2023/05/22 12:18:16;;;;;;;16.15;12.88;;;20.20;99.90;;;;;;5093311;28;20047;-62
2023/05/22 12:20:44;;;;;;;18.50;13.75;;;20.30;99.90;;;;;;5094821;28;20380;-62
2023/05/22 12:23:11;;;;;;;17.63;13.43;;;20.30;99.90;;;;;;5093732;28;20032;-62
2023/05/22 12:25:37;;;;;;;18.40;13.35;;;20.30;99.90;;;;;;5093081;28;20439;-63
2023/05/22 12:28:05;;;;;;;16.10;11.75;;;20.20;99.90;;;;;;5093443;28;20032;-62
2023/05/22 12:30:40;;;;;;;20.42;13.27;;;20.10;99.90;;;;;;5093175;28;20078;-62
2023/05/22 12:33:12;;;;;;;14.55;11.50;;;20.10;99.90;;;;;;5076319;28;20119;-63